Time;durP1;ratioP1;P1;durP2;ratioP2;P2;SDS_P1;SDS_P2;PMS_P1;PMS_P2;Temp;Humidity;BMP_temperature;BMP_pressure;BME280_temperature;BME280_humidity;BME280_pressure;Samples;Min_cycle;Max_cycle;Signal;HPM_P1;HPM_P2
2023/03/17 00:00:49;;;;;;;0.10;0.10;;;;;;;10.07;55.71;100826.28;5107765;28;20036;-82
2023/03/17 00:03:21;;;;;;;0.00;0.00;;;;;;;10.04;56.17;100828.09;5101824;28;20031;-82
2023/03/17 00:05:47;;;;;;;0.10;0.10;;;;;;;10.03;55.97;100820.16;5103236;28;20024;-82
2023/03/17 00:08:24;;;;;;;0.10;0.10;;;;;;;10.10;55.93;100818.28;5095024;28;20024;-84
2023/03/17 00:10:51;;;;;;;0.10;0.10;;;;;;;10.04;56.10;100806.91;5088505;28;20037;-83
2023/03/17 00:13:17;;;;;;;0.10;0.10;;;;;;;10.01;56.25;100793.72;5093899;28;20020;-82
2023/03/17 00:15:49;;;;;;;0.30;0.30;;;;;;;9.99;56.22;100795.53;5094186;28;20024;-84
2023/03/17 00:18:17;;;;;;;0.30;0.30;;;;;;;9.99;56.12;100803.47;5107295;28;20068;-83
2023/03/17 00:20:45;;;;;;;0.10;0.10;;;;;;;9.93;56.60;100794.75;5101216;28;20047;-85
2023/03/17 00:23:20;;;;;;;0.13;0.13;;;;;;;9.93;56.00;100798.31;5084348;28;20021;-84
2023/03/17 00:25:47;;;;;;;0.10;0.10;;;;;;;9.87;56.67;100795.75;5094142;28;20036;-85
2023/03/17 00:28:19;;;;;;;0.10;0.10;;;;;;;9.90;56.14;100797.47;5094233;28;20024;-85
2023/03/17 00:30:46;;;;;;;0.10;0.10;;;;;;;9.80;57.26;100791.47;5096623;28;20532;-84
2023/03/17 00:33:15;;;;;;;0.10;0.10;;;;;;;9.80;56.28;100792.34;5096270;28;20036;-83
2023/03/17 00:35:45;;;;;;;0.10;0.10;;;;;;;9.76;56.99;100789.75;5095565;28;20052;-83
2023/03/17 00:38:15;;;;;;;0.10;0.10;;;;;;;9.71;56.86;100798.66;5097429;28;20024;-83
2023/03/17 00:40:43;;;;;;;0.00;0.00;;;;;;;9.62;57.24;100793.53;5097770;28;20036;-85
2023/03/17 00:43:09;;;;;;;0.17;0.17;;;;;;;9.63;57.16;100800.59;5098966;28;20020;-84
2023/03/17 00:45:36;;;;;;;0.40;0.40;;;;;;;9.60;56.98;100800.63;5098433;28;20048;-85
2023/03/17 00:48:11;;;;;;;0.20;0.20;;;;;;;9.57;57.10;100790.09;5096362;28;20438;-84
2023/03/17 00:50:37;;;;;;;1.30;0.77;;;;;;;9.57;57.42;100773.34;5099279;28;20058;-84
2023/03/17 00:53:09;;;;;;;0.65;0.65;;;;;;;9.58;57.29;100764.50;5094771;28;20083;-84
2023/03/17 00:55:36;;;;;;;0.10;0.10;;;;;;;9.54;57.50;100774.28;5098534;28;20040;-85
2023/03/17 00:58:11;;;;;;;0.25;0.25;;;;;;;9.53;57.57;100783.09;5092148;28;20295;-85
2023/03/17 01:00:37;;;;;;;0.55;0.55;;;;;;;9.52;57.82;100786.63;5096733;28;20027;-85
2023/03/17 01:03:03;;;;;;;0.10;0.10;;;;;;;9.54;57.42;100784.84;5094775;28;20043;-84
2023/03/17 01:05:29;;;;;;;0.08;0.08;;;;;;;9.55;57.46;100792.75;5094368;28;20419;-83
2023/03/17 01:07:57;;;;;;;0.10;0.10;;;;;;;9.55;57.58;100791.88;5093525;28;20024;-83
2023/03/17 01:10:26;;;;;;;0.10;0.10;;;;;;;9.57;57.75;100795.41;5095025;28;20085;-82
2023/03/17 01:12:54;;;;;;;0.10;0.10;;;;;;;9.60;57.34;100786.53;5102719;28;20024;-86
2023/03/17 01:15:21;;;;;;;0.10;0.10;;;;;;;9.60;57.28;100784.75;5099468;28;20028;-83
2023/03/17 01:17:49;;;;;;;0.10;0.10;;;;;;;9.60;57.48;100784.75;5103220;28;20043;-83
2023/03/17 01:20:21;;;;;;;0.30;0.30;;;;;;;9.62;57.72;100782.06;5101515;28;20047;-83
2023/03/17 01:22:49;;;;;;;0.10;0.10;;;;;;;9.58;57.62;100790.97;5101198;28;20440;-85
2023/03/17 01:25:17;;;;;;;0.20;0.20;;;;;;;9.56;57.92;100780.41;5104054;28;20028;-85
2023/03/17 01:27:44;;;;;;;0.10;0.10;;;;;;;9.57;57.79;100768.06;5091524;28;20496;-86
2023/03/17 01:30:29;;;;;;;0.10;0.10;;;;;;;9.60;57.81;100763.59;5096726;28;20034;-83
2023/03/17 01:32:57;;;;;;;0.10;0.10;;;;;;;9.55;57.96;100760.16;5092654;28;20055;-83
2023/03/17 01:35:24;;;;;;;0.10;0.10;;;;;;;9.54;57.68;100753.09;5092687;28;20020;-82
2023/03/17 01:37:51;;;;;;;0.10;0.10;;;;;;;9.54;57.46;100759.28;5095324;28;20113;-84
2023/03/17 01:40:22;;;;;;;0.10;0.10;;;;;;;9.53;58.29;100762.81;5096735;28;20028;-83
2023/03/17 01:42:59;;;;;;;0.30;0.30;;;;;;;9.56;58.04;100748.69;5097368;28;20059;-85
2023/03/17 01:46:05;;;;;;;0.10;0.10;;;;;;;9.63;58.03;100742.38;5093020;28;20077;-85
2023/03/17 01:48:37;;;;;;;0.10;0.10;;;;;;;9.56;57.57;100746.03;5094210;28;20031;-85
2023/03/17 01:51:05;;;;;;;0.10;0.10;;;;;;;9.52;57.76;100742.56;5095645;28;20024;-85
2023/03/17 01:53:34;;;;;;;0.10;0.10;;;;;;;9.55;57.77;100737.19;5092229;28;20093;-85
2023/03/17 01:56:02;;;;;;;0.10;0.10;;;;;;;9.58;57.76;100732.78;5091997;28;20046;-85
2023/03/17 01:58:29;;;;;;;0.10;0.10;;;;;;;9.59;57.56;100735.38;5095039;28;20043;-84
2023/03/17 02:00:55;;;;;;;0.20;0.20;;;;;;;9.59;58.04;100739.81;5087042;28;20035;-85
2023/03/17 02:03:22;;;;;;;0.10;0.10;;;;;;;9.59;57.87;100739.81;5098026;28;20489;-85
2023/03/17 02:05:51;;;;;;;0.10;0.10;;;;;;;9.60;58.04;100739.78;5087271;28;20039;-84
2023/03/17 02:08:17;;;;;;;0.03;0.03;;;;;;;9.58;57.85;100738.91;5096366;28;20026;-85
2023/03/17 02:10:46;;;;;;;0.10;0.10;;;;;;;9.60;57.74;100731.84;5093811;28;20032;-85
2023/03/17 02:13:13;;;;;;;0.10;0.10;;;;;;;9.63;58.20;100728.25;5097928;28;20036;-85
2023/03/17 02:18:22;;;;;;;0.38;0.38;;;;;;;9.64;57.58;100730.03;5131463;27;20390;-83
2023/03/17 02:23:26;;;;;;;0.10;0.10;;;;;;;9.63;57.92;100731.81;5108946;27;20724;-84
2023/03/17 02:25:54;;;;;;;0.10;0.10;;;;;;;9.63;57.52;100729.16;5104703;28;20027;-84
2023/03/17 02:28:28;;;;;;;0.10;0.10;;;;;;;9.69;57.37;100730.81;5108143;28;20065;-85
2023/03/17 02:30:56;;;;;;;0.10;0.10;;;;;;;9.67;57.37;100728.19;5111637;28;20020;-82
2023/03/17 02:33:22;;;;;;;0.10;0.10;;;;;;;9.66;57.77;100723.78;5110545;28;20023;-81
2023/03/17 02:35:48;;;;;;;0.10;0.10;;;;;;;9.66;57.93;100725.59;5118431;28;20051;-83
2023/03/17 02:38:16;;;;;;;0.10;0.10;;;;;;;9.66;57.66;100726.44;5114742;28;20013;-83
2023/03/17 02:40:42;;;;;;;0.10;0.10;;;;;;;9.63;57.78;100718.56;5118453;28;20036;-83
2023/03/17 02:43:08;;;;;;;0.10;0.10;;;;;;;9.65;57.68;100724.69;5098878;28;20040;-83
2023/03/17 02:45:35;;;;;;;0.10;0.10;;;;;;;9.67;57.88;100722.00;5104185;28;20116;-85
2023/03/17 02:48:02;;;;;;;0.10;0.10;;;;;;;9.70;57.74;100729.91;5100867;28;20091;-83
2023/03/17 02:50:29;;;;;;;0.30;0.30;;;;;;;9.70;57.60;100729.91;5102580;28;20707;-84
2023/03/17 02:52:55;;;;;;;0.10;0.10;;;;;;;9.70;57.69;100738.69;5098840;28;20655;-84
2023/03/17 02:55:21;;;;;;;2.75;2.08;;;;;;;9.69;57.83;100742.28;5088896;28;20036;-85
2023/03/17 02:57:48;;;;;;;0.52;0.52;;;;;;;9.69;57.87;100736.97;5092137;28;20028;-84
2023/03/17 03:00:14;;;;;;;0.05;0.05;;;;;;;9.67;57.93;100736.13;5098415;28;20035;-85
2023/03/17 03:02:41;;;;;;;0.20;0.20;;;;;;;9.66;58.01;100726.44;5091023;28;20038;-84
2023/03/17 03:05:09;;;;;;;0.10;0.10;;;;;;;9.67;57.74;100722.91;5094778;28;20056;-84
2023/03/17 03:07:35;;;;;;;2.63;0.65;;;;;;;9.66;57.80;100723.78;5088442;28;20086;-84
2023/03/17 03:10:01;;;;;;;0.10;0.10;;;;;;;9.64;57.76;100717.66;5102073;28;20040;-85
2023/03/17 03:12:27;;;;;;;0.10;0.10;;;;;;;9.65;57.87;100718.53;5093345;28;20028;-83
2023/03/17 03:14:54;;;;;;;0.10;0.10;;;;;;;9.62;58.06;100716.81;5099348;28;20035;-85
2023/03/17 03:17:20;;;;;;;0.10;0.10;;;;;;;9.62;58.17;100719.47;5090229;28;20031;-85
2023/03/17 03:19:48;;;;;;;0.20;0.20;;;;;;;9.66;57.79;100721.16;5098506;28;20024;-85
2023/03/17 03:22:14;;;;;;;0.10;0.10;;;;;;;9.66;57.92;100731.72;5090747;28;20035;-85
2023/03/17 03:24:41;;;;;;;0.10;0.10;;;;;;;9.68;57.93;100729.94;5088380;28;20385;-85
2023/03/17 03:27:07;;;;;;;2.35;0.75;;;;;;;9.71;57.79;100729.88;5094435;28;20118;-85
2023/03/17 03:29:33;;;;;;;0.10;0.10;;;;;;;9.71;57.94;100740.44;5091131;28;20032;-85
2023/03/17 03:32:00;;;;;;;0.10;0.10;;;;;;;9.76;57.36;100735.09;5093418;28;20028;-84
2023/03/17 03:34:26;;;;;;;0.10;0.10;;;;;;;9.80;57.60;100735.91;5088284;28;20028;-85
2023/03/17 03:36:52;;;;;;;0.10;0.10;;;;;;;9.81;57.64;100735.00;5076207;28;20549;-85
2023/03/17 03:39:19;;;;;;;0.10;0.10;;;;;;;9.85;57.45;100739.34;5082469;28;20036;-85
2023/03/17 03:41:45;;;;;;;0.20;0.20;;;;;;;9.87;57.45;100734.91;5083584;28;20029;-84
2023/03/17 03:44:11;;;;;;;0.20;0.20;;;;;;;9.89;57.38;100738.38;5078880;28;20059;-83
2023/03/17 03:46:37;;;;;;;0.95;0.95;;;;;;;9.85;57.79;100741.97;5077716;28;20035;-83
2023/03/17 03:49:03;;;;;;;0.10;0.10;;;;;;;9.87;57.62;100750.78;5083024;28;20051;-83
2023/03/17 03:51:30;;;;;;;0.00;0.00;;;;;;;9.91;57.25;100746.31;5082888;28;20203;-83
2023/03/17 03:53:56;;;;;;;0.10;0.10;;;;;;;9.91;57.49;100757.75;5084550;28;20043;-81
2023/03/17 03:56:22;;;;;;;0.73;0.73;;;;;;;9.92;57.26;100755.97;5091045;28;20032;-82
2023/03/17 03:58:48;;;;;;;0.10;0.10;;;;;;;9.90;57.24;100756.00;5085559;28;20044;-83
2023/03/17 04:01:14;;;;;;;0.10;0.10;;;;;;;9.93;57.45;100760.34;5085606;28;20028;-83
2023/03/17 04:03:40;;;;;;;0.10;0.10;;;;;;;9.94;57.18;100767.41;5077894;28;20060;-83
2023/03/17 04:06:06;;;;;;;0.10;0.10;;;;;;;9.95;57.10;100758.56;5073998;28;20081;-85
2023/03/17 04:08:33;;;;;;;0.17;0.17;;;;;;;9.98;57.16;100750.56;5081553;28;20024;-84
2023/03/17 04:10:59;;;;;;;0.10;0.10;;;;;;;10.00;57.22;100739.03;5076923;28;20430;-85
2023/03/17 04:13:25;;;;;;;0.00;0.00;;;;;;;10.03;57.02;100757.53;5084434;28;20084;-84
2023/03/17 04:15:52;;;;;;;0.10;0.10;;;;;;;10.04;57.42;100763.66;5072939;28;20029;-83
2023/03/17 04:18:18;;;;;;;0.10;0.10;;;;;;;10.06;57.27;100750.44;5090079;28;20054;-84
2023/03/17 04:20:44;;;;;;;0.10;0.10;;;;;;;10.10;57.00;100749.47;5084333;28;20038;-83
2023/03/17 04:23:11;;;;;;;0.20;0.20;;;;;;;10.12;56.87;100761.75;5080629;28;20060;-82
2023/03/17 04:25:37;;;;;;;0.08;0.08;;;;;;;10.14;56.93;100759.06;5081918;28;20028;-83
2023/03/17 04:28:03;;;;;;;0.10;0.10;;;;;;;10.15;56.87;100744.94;5073135;28;20028;-84
2023/03/17 04:30:30;;;;;;;0.10;0.10;;;;;;;10.17;56.94;100743.16;5084331;28;20012;-82
2023/03/17 04:32:56;;;;;;;0.10;0.10;;;;;;;10.19;56.95;100754.56;5083448;28;20009;-83
2023/03/17 04:35:22;;;;;;;0.20;0.20;;;;;;;10.22;56.73;100741.28;5096333;28;20100;-82
2023/03/17 04:37:49;;;;;;;0.10;0.10;;;;;;;10.23;56.91;100747.44;5100520;28;20016;-83
2023/03/17 04:40:16;;;;;;;0.10;0.10;;;;;;;10.25;56.71;100750.94;5102214;28;20390;-82
2023/03/17 04:42:43;;;;;;;0.10;0.10;;;;;;;10.26;56.88;100756.19;5093024;28;20056;-82
2023/03/17 04:45:12;;;;;;;0.10;0.10;;;;;;;10.28;56.91;100764.09;5087088;28;20052;-82
2023/03/17 04:47:39;;;;;;;0.10;0.10;;;;;;;10.27;56.82;100765.00;5092769;28;20016;-81
2023/03/17 04:50:07;;;;;;;0.08;0.08;;;;;;;10.29;56.58;100763.19;5088483;28;20031;-82
2023/03/17 04:52:34;;;;;;;0.17;0.17;;;;;;;10.32;56.77;100768.44;5094999;28;20020;-82
2023/03/17 04:55:00;;;;;;;0.10;0.10;;;;;;;10.32;56.52;100761.34;5092731;28;20078;-82
2023/03/17 04:57:26;;;;;;;0.10;0.10;;;;;;;10.33;56.87;100759.56;5078848;28;20043;-85
2023/03/17 04:59:52;;;;;;;0.13;0.13;;;;;;;10.33;56.89;100757.81;5078796;28;20063;-84
2023/03/17 05:02:19;;;;;;;0.10;0.10;;;;;;;10.32;57.03;100748.13;5078657;28;20123;-82
2023/03/17 05:04:45;;;;;;;0.10;0.10;;;;;;;10.34;56.78;100754.28;5078883;28;20020;-83
2023/03/17 05:07:12;;;;;;;0.10;0.10;;;;;;;10.34;56.88;100750.72;5076988;28;20059;-82
2023/03/17 05:09:38;;;;;;;0.10;0.10;;;;;;;10.34;57.22;100740.13;5084506;28;20058;-83
2023/03/17 05:12:05;;;;;;;0.17;0.17;;;;;;;10.35;57.19;100741.88;5086601;28;20095;-81
2023/03/17 05:14:31;;;;;;;0.15;0.15;;;;;;;10.36;56.90;100728.63;5079335;28;20108;-82
2023/03/17 05:16:57;;;;;;;0.10;0.10;;;;;;;10.36;57.22;100709.25;5077315;28;20060;-82
2023/03/17 05:19:23;;;;;;;0.10;0.10;;;;;;;10.35;57.01;100705.69;5075302;28;20479;-83
2023/03/17 05:21:49;;;;;;;0.10;0.10;;;;;;;10.35;57.02;100703.03;5077969;28;20025;-81
2023/03/17 05:24:15;;;;;;;0.00;0.00;;;;;;;10.33;57.22;100715.44;5082998;28;20401;-82
2023/03/17 05:26:41;;;;;;;0.30;0.30;;;;;;;10.29;57.33;100703.19;5079235;28;20033;-84
2023/03/17 05:29:07;;;;;;;0.00;0.00;;;;;;;10.22;57.24;100687.44;5084516;28;20048;-83
2023/03/17 05:31:34;;;;;;;0.38;0.38;;;;;;;10.17;57.28;100696.34;5076044;28;20028;-84
2023/03/17 05:34:00;;;;;;;0.10;0.10;;;;;;;10.13;57.59;100721.16;5076061;28;20024;-83
2023/03/17 05:36:26;;;;;;;0.08;0.08;;;;;;;10.07;57.40;100726.56;5077324;28;20032;-84
2023/03/17 05:38:52;;;;;;;0.00;0.00;;;;;;;10.06;57.43;100724.81;5077290;28;20021;-83
2023/03/17 05:41:18;;;;;;;0.10;0.10;;;;;;;10.06;57.30;100734.53;5074159;28;20032;-84
2023/03/17 05:43:45;;;;;;;0.10;0.10;;;;;;;10.03;57.30;100724.88;5075264;28;20054;-82
2023/03/17 05:46:12;;;;;;;0.20;0.20;;;;;;;10.01;57.37;100726.69;5082610;28;20024;-82
2023/03/17 05:48:38;;;;;;;0.10;0.10;;;;;;;10.03;57.26;100715.16;5091940;28;20047;-83
2023/03/17 05:51:05;;;;;;;0.10;0.10;;;;;;;10.02;57.46;100716.06;5095295;28;20067;-84
2023/03/17 05:53:31;;;;;;;0.10;0.10;;;;;;;10.02;57.22;100713.41;5095319;28;20481;-83
2023/03/17 05:55:57;;;;;;;0.10;0.10;;;;;;;10.04;57.27;100716.91;5090935;28;20567;-83
2023/03/17 05:58:23;;;;;;;0.10;0.10;;;;;;;10.07;57.21;100741.56;5072300;28;20043;-83
2023/03/17 06:00:49;;;;;;;0.10;0.10;;;;;;;10.03;57.20;100731.03;5073516;28;20062;-83
2023/03/17 06:03:16;;;;;;;0.10;0.10;;;;;;;10.05;57.16;100731.00;5071281;28;20087;-82
2023/03/17 06:05:42;;;;;;;0.10;0.10;;;;;;;10.02;57.05;100725.78;5076847;28;20043;-82
2023/03/17 06:08:08;;;;;;;0.10;0.10;;;;;;;10.02;57.02;100729.28;5079449;28;20117;-84
2023/03/17 06:10:35;;;;;;;0.10;0.10;;;;;;;9.98;57.35;100727.63;5073186;28;20474;-83
2023/03/17 06:13:01;;;;;;;0.10;0.10;;;;;;;9.92;57.80;100719.81;5080726;28;20066;-85
2023/03/17 06:15:27;;;;;;;0.10;0.10;;;;;;;9.90;57.37;100708.34;5088456;28;20122;-84
2023/03/17 06:17:54;;;;;;;0.10;0.10;;;;;;;9.85;57.60;100710.22;5097732;28;20036;-85
2023/03/17 06:20:20;;;;;;;0.10;0.10;;;;;;;9.80;58.02;100720.03;5080154;28;20048;-85
2023/03/17 06:22:46;;;;;;;0.10;0.10;;;;;;;9.75;57.95;100706.88;5076148;28;20045;-85
2023/03/17 06:25:14;;;;;;;0.10;0.10;;;;;;;9.75;58.12;100724.53;5081337;28;20179;-85
2023/03/17 06:27:41;;;;;;;0.10;0.10;;;;;;;9.72;57.68;100730.75;5082436;28;20035;-83
2023/03/17 06:30:08;;;;;;;0.20;0.20;;;;;;;9.74;57.53;100736.03;5075637;28;20024;-83
2023/03/17 06:32:35;;;;;;;0.00;0.00;;;;;;;9.73;57.51;100743.06;5073391;28;20036;-83
2023/03/17 06:35:04;;;;;;;0.10;0.10;;;;;;;9.70;57.78;100744.00;5087527;28;20050;-84
2023/03/17 06:37:30;;;;;;;0.10;0.10;;;;;;;9.68;57.81;100743.16;5086584;28;20029;-84
2023/03/17 06:39:57;;;;;;;0.10;0.10;;;;;;;9.71;57.94;100744.88;5076305;28;20036;-84
2023/03/17 06:42:23;;;;;;;0.10;0.10;;;;;;;9.70;58.06;100738.69;5082080;28;20451;-85
2023/03/17 06:44:51;;;;;;;0.10;0.10;;;;;;;9.77;57.98;100739.47;5077375;28;20036;-86
2023/03/17 06:47:18;;;;;;;0.10;0.10;;;;;;;9.82;57.63;100732.31;5084337;28;20028;-84
2023/03/17 06:49:44;;;;;;;0.10;0.10;;;;;;;9.86;57.91;100733.16;5091126;28;20016;-81
2023/03/17 06:52:12;;;;;;;0.10;0.10;;;;;;;9.92;57.70;100733.03;5078091;28;20036;-79
2023/03/17 06:54:38;;;;;;;0.55;0.55;;;;;;;9.99;57.75;100745.25;5078501;28;20389;-81
2023/03/17 06:57:04;;;;;;;0.40;0.40;;;;;;;10.06;57.71;100737.19;5075412;28;20041;-84
2023/03/17 06:59:31;;;;;;;0.10;0.10;;;;;;;10.11;57.19;100732.69;5068370;28;20120;-81
2023/03/17 07:01:58;;;;;;;1.85;1.55;;;;;;;10.14;57.58;100727.31;5065103;28;20036;-81
2023/03/17 07:04:24;;;;;;;0.10;0.10;;;;;;;10.13;57.67;100737.03;5063770;28;20139;-83
2023/03/17 07:06:50;;;;;;;0.10;0.10;;;;;;;10.17;57.65;100744.00;5074336;28;20029;-83
2023/03/17 07:09:17;;;;;;;0.10;0.10;;;;;;;10.17;57.68;100746.66;5078708;28;20024;-83
2023/03/17 07:11:43;;;;;;;0.20;0.20;;;;;;;10.23;57.26;100753.63;5076299;28;20039;-83
2023/03/17 07:14:09;;;;;;;0.10;0.10;;;;;;;10.29;57.29;100758.78;5082397;28;20052;-83
2023/03/17 07:16:36;;;;;;;0.10;0.10;;;;;;;10.31;57.54;100756.09;5079460;28;20052;-82
2023/03/17 07:19:11;;;;;;;0.60;0.40;;;;;;;10.37;57.21;100756.00;5082746;28;20032;-82
2023/03/17 07:21:37;;;;;;;0.17;0.17;;;;;;;10.42;57.12;100753.25;5075281;28;20507;-83
2023/03/17 07:24:04;;;;;;;0.10;0.10;;;;;;;10.46;57.09;100754.94;5082704;28;20443;-83
2023/03/17 07:26:30;;;;;;;0.30;0.30;;;;;;;10.50;56.95;100752.22;5091141;28;20024;-83
2023/03/17 07:28:59;;;;;;;0.15;0.15;;;;;;;10.55;57.08;100733.53;5092242;28;20028;-85
2023/03/17 07:31:25;;;;;;;0.10;0.10;;;;;;;10.58;57.26;100728.19;5091506;28;20029;-84
2023/03/17 07:33:52;;;;;;;0.10;0.10;;;;;;;10.64;56.92;100725.41;5101629;28;20040;-85
2023/03/17 07:36:18;;;;;;;0.28;0.28;;;;;;;10.74;56.92;100730.50;5100586;28;20055;-87
2023/03/17 07:38:45;;;;;;;0.50;0.50;;;;;;;10.84;56.94;100729.38;5101569;28;20039;-84
2023/03/17 07:41:11;;;;;;;0.10;0.10;;;;;;;10.92;56.57;100732.72;5095741;28;20053;-78
2023/03/17 07:43:38;;;;;;;0.10;0.10;;;;;;;11.02;56.38;100740.47;5078891;28;20144;-83
2023/03/17 07:46:05;;;;;;;0.10;0.10;;;;;;;11.10;56.07;100735.84;5088995;28;20111;-85
2023/03/17 07:48:32;;;;;;;0.10;0.10;;;;;;;11.19;56.01;100738.28;5090842;28;20032;-83
2023/03/17 07:50:58;;;;;;;0.10;0.10;;;;;;;11.29;55.76;100741.56;5089167;28;20488;-83
2023/03/17 07:53:25;;;;;;;0.10;0.10;;;;;;;11.35;55.77;100745.88;5081811;28;20031;-85
2023/03/17 07:55:51;;;;;;;0.10;0.10;;;;;;;11.42;55.29;100753.63;5086117;28;20041;-85
2023/03/17 07:58:17;;;;;;;0.10;0.10;;;;;;;11.47;55.46;100764.13;5081651;28;20150;-86
2023/03/17 08:00:43;;;;;;;0.10;0.10;;;;;;;11.50;55.62;100745.47;5082222;28;20078;-84
2023/03/17 08:03:09;;;;;;;0.10;0.10;;;;;;;11.53;55.10;100750.72;5086736;28;20033;-85
2023/03/17 08:05:35;;;;;;;0.10;0.10;;;;;;;11.55;54.70;100748.91;5096474;28;20096;-84
2023/03/17 08:08:01;;;;;;;0.10;0.10;;;;;;;11.57;55.05;100747.06;5107405;28;20031;-84
2023/03/17 08:10:28;;;;;;;0.10;0.10;;;;;;;11.62;54.91;100750.47;5106533;28;20028;-84
2023/03/17 08:12:54;;;;;;;1.10;0.82;;;;;;;11.57;54.77;100752.38;5097401;28;20020;-84
2023/03/17 08:15:20;;;;;;;0.20;0.20;;;;;;;11.58;54.51;100748.81;5102098;28;20041;-84
2023/03/17 08:17:47;;;;;;;0.10;0.10;;;;;;;11.62;54.66;100753.13;5102851;28;20021;-83
2023/03/17 08:20:14;;;;;;;0.20;0.20;;;;;;;11.65;54.87;100753.03;5096420;28;20016;-84
2023/03/17 08:22:40;;;;;;;0.10;0.10;;;;;;;11.69;54.41;100745.88;5103066;28;20032;-82
2023/03/17 08:25:13;;;;;;;0.20;0.20;;;;;;;11.74;54.60;100749.28;5101846;28;20585;-86
2023/03/17 08:27:39;;;;;;;0.32;0.32;;;;;;;11.80;54.52;100745.56;5094501;28;20035;-85
2023/03/17 08:30:06;;;;;;;0.03;0.03;;;;;;;11.89;54.15;100747.13;5084926;28;20025;-84
2023/03/17 08:32:33;;;;;;;0.00;0.00;;;;;;;11.93;54.17;100747.00;5075506;28;20028;-85
2023/03/17 08:35:00;;;;;;;0.10;0.10;;;;;;;12.04;54.83;100745.88;5105712;28;20118;-86
2023/03/17 08:37:55;;;;;;;0.32;0.32;;;;;;;12.18;53.69;100750.81;5103175;28;20036;-84
2023/03/17 08:40:22;;;;;;;0.25;0.25;;;;;;;12.18;54.26;100748.16;5085541;28;20040;-87
2023/03/17 08:42:50;;;;;;;0.10;0.10;;;;;;;12.21;54.47;100743.63;5085109;28;20074;-87
2023/03/17 08:45:17;;;;;;;0.05;0.05;;;;;;;12.29;53.72;100736.28;5084922;28;20031;-85
2023/03/17 08:47:45;;;;;;;0.10;0.10;;;;;;;12.38;54.39;100745.78;5082104;28;20035;-84
2023/03/17 08:50:17;;;;;;;0.20;0.20;;;;;;;12.45;54.79;100736.72;5084632;28;20028;-86
2023/03/17 08:52:44;;;;;;;0.10;0.10;;;;;;;12.53;54.31;100732.97;5099306;28;20059;-85
2023/03/17 08:55:12;;;;;;;0.00;0.00;;;;;;;12.62;54.50;100738.88;5088018;28;20038;-84
2023/03/17 08:57:38;;;;;;;0.03;0.03;;;;;;;12.68;54.29;100739.59;5084389;28;20497;-86
2023/03/17 09:00:10;;;;;;;0.10;0.10;;;;;;;12.75;53.85;100743.81;5102474;28;20043;-84
2023/03/17 09:02:39;;;;;;;0.43;0.43;;;;;;;12.81;53.64;100743.63;5087560;28;20035;-86
2023/03/17 09:05:08;;;;;;;0.05;0.05;;;;;;;12.91;53.14;100745.09;5084560;28;20059;-85
2023/03/17 09:07:37;;;;;;;0.20;0.20;;;;;;;13.03;53.83;100748.28;5089984;28;20029;-85
2023/03/17 09:10:04;;;;;;;0.10;0.10;;;;;;;13.12;52.90;100753.28;5084007;28;20439;-86
2023/03/17 09:12:31;;;;;;;0.90;0.90;;;;;;;13.25;52.34;100748.44;5082180;28;20024;-85
2023/03/17 09:14:57;;;;;;;0.20;0.20;;;;;;;13.37;51.32;100757.81;5096262;28;20017;-85
2023/03/17 09:17:23;;;;;;;0.10;0.10;;;;;;;13.49;50.98;100749.44;5081686;28;20028;-83
2023/03/17 09:19:49;;;;;;;0.10;0.10;;;;;;;13.64;52.06;100755.19;5099961;28;20103;-84
2023/03/17 09:22:18;;;;;;;0.10;0.10;;;;;;;13.76;51.64;100754.75;5097517;28;20413;-83
2023/03/17 09:24:45;;;;;;;0.10;0.10;;;;;;;13.84;51.54;100763.34;5078753;28;20032;-84
2023/03/17 09:27:12;;;;;;;0.00;0.00;;;;;;;13.89;51.06;100769.41;5084427;28;20020;-86
2023/03/17 09:29:38;;;;;;;0.10;0.10;;;;;;;14.03;50.48;100765.34;5101878;28;20031;-85
2023/03/17 09:32:08;;;;;;;0.10;0.10;;;;;;;14.13;50.75;100772.13;5086393;28;20123;-88
2023/03/17 09:34:34;;;;;;;0.00;0.00;;;;;;;14.16;49.70;100777.31;5102146;28;20027;-88
2023/03/17 09:37:01;;;;;;;0.35;0.35;;;;;;;14.20;48.88;100770.94;5100555;28;20058;-86
2023/03/17 09:39:27;;;;;;;0.10;0.10;;;;;;;14.20;49.02;100778.06;5080911;28;20036;-83
2023/03/17 09:50:20;;;;;;;2.13;1.80;;;;;;;14.32;50.64;100787.44;5120777;27;20730;-86
2023/03/17 09:52:50;;;;;;;0.10;0.10;;;;;;;14.46;50.50;100782.44;5107598;28;20035;-85
2023/03/17 09:55:28;;;;;;;12.45;1.00;;;;;;;14.60;49.65;100783.72;5114164;28;20028;-84
2023/03/17 09:57:59;;;;;;;0.10;0.10;;;;;;;14.62;48.58;100800.56;5120141;28;20108;-84
2023/03/17 10:00:28;;;;;;;0.20;0.20;;;;;;;14.74;48.39;100812.56;5127832;28;20031;-85
2023/03/17 10:02:56;;;;;;;0.10;0.10;;;;;;;14.87;48.09;100820.03;5119297;28;20027;-85
2023/03/17 10:05:28;;;;;;;0.10;0.10;;;;;;;15.11;48.23;100828.03;5111570;28;20059;-86
2023/03/17 10:08:21;;;;;;;0.20;0.20;;;;;;;15.41;47.33;100821.53;5111745;28;20067;-85
2023/03/17 10:16:41;;;;;;;0.10;0.10;;;;;;;16.04;46.14;100818.03;5108958;27;1316229;-84
2023/03/17 10:19:33;;;;;;;0.25;0.25;;;;;;;15.95;46.12;100812.19;5130144;28;20034;-84
2023/03/17 10:22:18;;;;;;;0.13;0.13;;;;;;;15.90;46.11;100821.31;5124283;28;20070;-83
2023/03/17 10:24:49;;;;;;;29.42;1.80;;;;;;;15.81;45.83;100817.19;5123188;27;20020;-84
2023/03/17 10:27:16;;;;;;;0.15;0.15;;;;;;;15.70;46.19;100809.63;5121806;28;20039;-85
2023/03/17 10:29:43;;;;;;;0.10;0.10;;;;;;;15.76;46.28;100817.38;5128312;27;20032;-86
2023/03/17 10:32:12;;;;;;;0.15;0.15;;;;;;;15.85;46.43;100818.88;5116362;28;20069;-86
2023/03/17 10:34:40;;;;;;;0.00;0.00;;;;;;;15.95;46.95;100822.88;5117489;28;20404;-85
2023/03/17 10:37:13;;;;;;;0.20;0.20;;;;;;;16.04;46.29;100818.94;5121413;28;20034;-85
2023/03/17 10:42:31;;;;;;;0.10;0.10;;;;;;;16.14;46.61;100808.72;5075343;28;20391;-85
2023/03/17 10:47:38;;;;;;;0.00;0.00;;;;;;;16.12;45.63;100800.75;4679168;22;13766400;-88
2023/03/17 10:50:57;;;;;;;;;;;;;;;;;;;;;
2023/03/17 10:57:18;;;;;;;0.17;0.17;;;;;;;16.30;46.80;100784.84;5087378;22;20065;-85
2023/03/17 11:00:11;;;;;;;0.10;0.10;;;;;;;16.37;46.35;100777.41;5116282;28;20036;-84
2023/03/17 11:02:49;;;;;;;0.43;0.17;;;;;;;16.42;46.31;100783.41;5089297;28;20040;-84
2023/03/17 11:05:28;;;;;;;0.10;0.10;;;;;;;16.45;46.95;100765.41;5098360;28;20024;-83
2023/03/17 11:08:18;;;;;;;0.20;0.20;;;;;;;16.43;46.73;100772.63;5099824;28;20111;-85
2023/03/17 11:10:54;;;;;;;0.40;0.40;;;;;;;16.52;46.96;100765.13;5098835;28;20535;-85
2023/03/17 11:13:21;;;;;;;0.10;0.10;;;;;;;16.55;46.70;100765.88;5098531;28;20076;-84
2023/03/17 11:15:55;;;;;;;0.10;0.10;;;;;;;16.69;46.61;100765.22;5080892;28;20032;-85
2023/03/17 11:19:06;;;;;;;0.20;0.20;;;;;;;16.87;46.77;100758.13;5096381;28;20027;-84
2023/03/17 11:21:58;;;;;;;0.10;0.10;;;;;;;16.99;46.61;100751.34;5068285;28;20039;-86
2023/03/17 11:24:39;;;;;;;;;;;;;;;17.22;46.05;100744.00;5065577;28;20051;-85
2023/03/17 11:27:27;;;;;;;0.20;0.20;;;;;;;17.29;46.17;100746.28;5076166;28;19958;-86
2023/03/17 11:32:59;;;;;;;0.10;0.10;;;;;;;17.64;44.89;100753.50;5073776;28;20453;-86
2023/03/17 11:35:43;;;;;;;0.10;0.10;;;;;;;17.71;45.09;100749.56;5052221;28;20029;-84
2023/03/17 11:38:18;;;;;;;0.47;0.47;;;;;;;17.70;44.58;100745.16;5056815;28;20017;-84
2023/03/17 11:49:29;;;;;;;0.10;0.10;;;;;;;17.88;45.62;100732.63;5155858;27;20419;-85
2023/03/17 11:55:37;;;;;;;0.10;0.10;;;;;;;18.18;44.14;100706.94;5099065;27;20391;-88
2023/03/17 11:58:15;;;;;;;0.17;0.17;;;;;;;18.27;44.47;100711.84;5094577;28;20043;-88
2023/03/17 12:00:55;;;;;;;0.30;0.30;;;;;;;18.35;44.61;100714.09;5099617;28;20063;-86
2023/03/17 12:03:44;;;;;;;0.63;0.60;;;;;;;18.47;45.03;100710.75;5093461;28;20016;-88
2023/03/17 12:06:53;;;;;;;0.10;0.10;;;;;;;18.54;44.64;100713.94;5106042;28;20043;-86
2023/03/17 12:12:49;;;;;;;0.40;0.40;;;;;;;18.69;44.44;100713.09;5103285;27;20463;-84
2023/03/17 12:15:40;;;;;;;0.43;0.43;;;;;;;18.65;44.88;100722.25;5069664;28;20044;-85
2023/03/17 12:19:15;;;;;;;0.98;0.77;;;;;;;18.65;44.60;100718.72;5040966;22;20038;-86
2023/03/17 12:22:47;;;;;;;0.10;0.10;;;;;;;18.62;45.11;100722.44;5018273;28;20115;-85
2023/03/17 12:25:15;;;;;;;0.10;0.10;;;;;;;18.66;44.82;100723.13;4986250;28;20039;-86
2023/03/17 12:27:54;;;;;;;0.10;0.10;;;;;;;18.78;45.37;100735.88;5002025;28;20045;-86